createdAt,value
2019-03-16T00:00:53.779Z,2.10
2019-03-16T00:01:57.364Z,2.10
2019-03-16T00:02:53.753Z,2.30
2019-03-16T00:03:53.741Z,2.30
2019-03-16T00:04:53.733Z,2.40
2019-03-16T00:05:53.727Z,2.50
2019-03-16T00:06:53.704Z,2.50
2019-03-16T00:07:54.214Z,2.50
2019-03-16T00:08:53.683Z,1.90
2019-03-16T00:09:53.675Z,2.20
2019-03-16T00:10:53.714Z,2.30
2019-03-16T00:11:59.934Z,2.50
2019-03-16T00:12:53.641Z,2.30
2019-03-16T00:13:53.646Z,2.40
2019-03-16T00:14:53.621Z,2.60
2019-03-16T00:15:53.605Z,2.20
2019-03-16T00:16:53.607Z,2.40
2019-03-16T00:17:54.229Z,2.50
2019-03-16T00:18:53.580Z,2.50
2019-03-16T00:19:53.562Z,2.60
2019-03-16T00:20:53.549Z,2.30
2019-03-16T00:21:53.570Z,2.80
2019-03-16T00:22:53.527Z,2.60
2019-03-16T00:23:53.515Z,2.40
2019-03-16T00:24:53.502Z,2.50
2019-03-16T00:25:53.499Z,2.70
2019-03-16T00:26:53.484Z,2.30
2019-03-16T00:27:53.507Z,2.40
2019-03-16T00:28:53.456Z,2.60
2019-03-16T00:29:53.450Z,2.50
2019-03-16T00:30:53.437Z,2.50
2019-03-16T00:31:53.440Z,2.30
2019-03-16T00:32:53.419Z,2.20
2019-03-16T00:33:53.407Z,2.40
2019-03-16T00:34:53.396Z,2.60
2019-03-16T00:35:53.381Z,2.20
2019-03-16T00:36:53.366Z,2.40
2019-03-16T00:37:53.355Z,2.30
2019-03-16T00:38:53.388Z,2.50
2019-03-16T00:39:53.334Z,2.50
2019-03-16T00:40:53.327Z,2.40
2019-03-16T00:41:53.311Z,2.40
2019-03-16T00:42:53.301Z,2.60
2019-03-16T00:43:59.770Z,2.60
2019-03-16T00:44:53.278Z,2.60
2019-03-16T00:45:53.274Z,2.50
2019-03-16T00:46:53.257Z,2.70
2019-03-16T00:47:53.250Z,2.50
2019-03-16T00:48:53.237Z,2.40
2019-03-16T00:49:53.265Z,2.60
2019-03-16T00:50:53.215Z,2.60
2019-03-16T00:51:53.200Z,2.70
2019-03-16T00:52:53.191Z,2.50
2019-03-16T00:53:53.175Z,2.60
2019-03-16T00:54:53.169Z,2.20
2019-03-16T00:55:53.176Z,2.60
2019-03-16T00:56:53.149Z,2.70
2019-03-16T00:57:53.174Z,2.70
2019-03-16T00:58:53.125Z,2.60
2019-03-16T00:59:53.114Z,2.70
2019-03-16T01:00:53.098Z,2.50
2019-03-16T01:01:53.100Z,2.50
2019-03-16T01:02:53.073Z,2.20
2019-03-16T01:03:53.063Z,2.70
2019-03-16T01:04:53.053Z,2.70
2019-03-16T01:05:53.043Z,2.50
2019-03-16T01:06:53.066Z,2.20
2019-03-16T01:07:53.023Z,2.60
2019-03-16T01:08:53.014Z,2.20
2019-03-16T01:09:53.007Z,2.70
2019-03-16T01:10:52.983Z,2.30
2019-03-16T01:11:52.988Z,2.50
2019-03-16T01:12:53.048Z,2.50
2019-03-16T01:13:52.955Z,2.50
2019-03-16T01:14:52.942Z,2.30
2019-03-16T01:15:59.024Z,2.40
2019-03-16T01:16:52.922Z,2.60
2019-03-16T01:17:53.013Z,2.50
2019-03-16T01:18:52.893Z,2.50
2019-03-16T01:19:52.882Z,2.80
2019-03-16T01:20:52.875Z,2.40
2019-03-16T01:21:52.868Z,2.90
2019-03-16T01:22:52.854Z,2.80
2019-03-16T01:23:52.873Z,2.50
2019-03-16T01:24:52.831Z,2.50
2019-03-16T01:25:52.814Z,2.20
2019-03-16T01:26:52.807Z,2.60
2019-03-16T01:27:52.793Z,2.70
2019-03-16T01:28:52.786Z,3.00
2019-03-16T01:29:52.785Z,2.50
2019-03-16T01:30:52.766Z,2.40
2019-03-16T01:31:52.751Z,3.00
2019-03-16T01:32:52.736Z,2.30
2019-03-16T01:33:52.725Z,2.80
2019-03-16T01:34:52.733Z,2.60
2019-03-16T01:35:52.706Z,2.50
2019-03-16T01:36:52.693Z,2.60
2019-03-16T01:37:52.685Z,2.40
2019-03-16T01:38:52.680Z,2.50
2019-03-16T01:39:52.663Z,2.80
2019-03-16T01:40:52.682Z,2.40
2019-03-16T01:41:52.635Z,2.50
2019-03-16T01:42:52.628Z,2.80
2019-03-16T01:43:52.620Z,2.50
2019-03-16T01:44:52.605Z,2.80
2019-03-16T01:45:52.592Z,2.70
2019-03-16T01:46:52.622Z,2.30
2019-03-16T01:47:58.656Z,2.30
2019-03-16T01:48:52.557Z,2.30
2019-03-16T01:49:52.543Z,2.40
2019-03-16T01:50:52.539Z,2.50
2019-03-16T01:51:52.526Z,2.60
2019-03-16T01:52:52.529Z,2.60
2019-03-16T01:53:52.578Z,2.70
2019-03-16T01:54:52.495Z,2.40
2019-03-16T01:55:52.481Z,2.40
2019-03-16T01:56:52.470Z,2.90
2019-03-16T01:57:53.277Z,2.60
2019-03-16T01:58:52.451Z,2.90
2019-03-16T01:59:52.432Z,2.80
2019-03-16T02:00:52.422Z,2.60
2019-03-16T02:01:52.406Z,2.60
2019-03-16T02:02:55.571Z,2.80
2019-03-16T02:03:52.427Z,2.60
2019-03-16T02:04:52.378Z,3.00
2019-03-16T02:05:52.366Z,2.60
2019-03-16T02:06:52.360Z,2.50
2019-03-16T02:07:52.339Z,2.90
2019-03-16T02:08:52.331Z,2.70
2019-03-16T02:09:52.334Z,2.70
2019-03-16T02:10:52.304Z,3.00
2019-03-16T02:11:52.296Z,2.90
2019-03-16T02:12:52.285Z,2.70
2019-03-16T02:13:52.273Z,2.90
2019-03-16T02:14:52.265Z,2.90
2019-03-16T02:15:52.263Z,2.90
2019-03-16T02:16:52.242Z,2.60
2019-03-16T02:17:52.326Z,2.90
2019-03-16T02:18:52.223Z,3.00
2019-03-16T02:19:58.300Z,2.60
2019-03-16T02:20:52.226Z,2.50
2019-03-16T02:21:52.278Z,2.90
2019-03-16T02:22:52.170Z,2.70
2019-03-16T02:23:52.157Z,2.50
2019-03-16T02:24:52.151Z,2.80
2019-03-16T02:25:52.140Z,2.60
2019-03-16T02:26:52.160Z,2.80
2019-03-16T02:27:52.117Z,2.70
2019-03-16T02:28:52.099Z,2.50
2019-03-16T02:29:52.088Z,2.70
2019-03-16T02:30:52.083Z,2.50
2019-03-16T02:31:52.070Z,2.60
2019-03-16T02:32:52.069Z,2.90
2019-03-16T02:33:52.047Z,2.90
2019-03-16T02:34:52.032Z,2.70
2019-03-16T02:35:52.025Z,2.80
2019-03-16T02:36:52.019Z,2.80
2019-03-16T02:37:52.035Z,2.60
2019-03-16T02:38:51.997Z,2.70
2019-03-16T02:39:51.977Z,2.90
2019-03-16T02:40:51.969Z,2.90
2019-03-16T02:41:51.969Z,2.90
2019-03-16T02:42:51.939Z,2.80
2019-03-16T02:43:51.938Z,2.90
2019-03-16T02:44:51.923Z,2.70
2019-03-16T02:45:51.913Z,3.10
2019-03-16T02:46:51.897Z,2.60
2019-03-16T02:47:51.883Z,2.80
2019-03-16T02:48:51.998Z,3.20
2019-03-16T02:49:51.871Z,2.90
2019-03-16T02:50:51.853Z,3.10
2019-03-16T02:51:57.933Z,2.90
2019-03-16T02:52:51.837Z,2.80
2019-03-16T02:53:51.816Z,3.00
2019-03-16T02:54:51.843Z,3.00
2019-03-16T02:55:51.796Z,2.90
2019-03-16T02:56:51.785Z,3.00
2019-03-16T02:57:51.844Z,3.20
2019-03-16T02:58:51.768Z,2.80
2019-03-16T02:59:51.750Z,2.80
2019-03-16T03:00:51.777Z,2.80
2019-03-16T03:01:51.729Z,3.30
2019-03-16T03:02:51.713Z,2.80
2019-03-16T03:03:51.708Z,2.90
2019-03-16T03:04:51.691Z,2.60
2019-03-16T03:05:51.682Z,2.70
2019-03-16T03:06:51.709Z,3.00
2019-03-16T03:07:51.665Z,2.80
2019-03-16T03:08:51.654Z,3.00
2019-03-16T03:09:51.652Z,2.60
2019-03-16T03:10:51.626Z,3.10
2019-03-16T03:11:51.624Z,2.90
2019-03-16T03:12:51.613Z,2.70
2019-03-16T03:13:51.593Z,2.90
2019-03-16T03:14:51.580Z,2.80
2019-03-16T03:15:51.566Z,2.80
2019-03-16T03:16:51.558Z,3.10
2019-03-16T03:17:51.585Z,2.80
2019-03-16T03:18:51.540Z,3.00
2019-03-16T03:19:51.528Z,2.70
2019-03-16T03:20:51.689Z,3.00
2019-03-16T03:21:51.500Z,2.80
2019-03-16T03:22:51.493Z,3.20
2019-03-16T03:23:57.843Z,3.30
2019-03-16T03:24:51.510Z,3.00
2019-03-16T03:25:51.454Z,2.80
2019-03-16T03:26:51.447Z,2.80
2019-03-16T03:27:51.432Z,3.20
2019-03-16T03:28:51.430Z,3.00
2019-03-16T03:29:51.413Z,2.70
2019-03-16T03:30:51.414Z,3.30
2019-03-16T03:31:51.389Z,3.00
2019-03-16T03:32:51.385Z,3.00
2019-03-16T03:34:00.470Z,3.10
2019-03-16T03:34:52.356Z,2.90
2019-03-16T03:35:51.342Z,3.10
2019-03-16T03:36:51.376Z,3.00
2019-03-16T03:37:51.317Z,2.90
2019-03-16T03:38:51.317Z,2.90
2019-03-16T03:39:51.301Z,3.10
2019-03-16T03:40:51.288Z,2.90
2019-03-16T03:41:51.280Z,2.60
2019-03-16T03:42:51.260Z,3.00
2019-03-16T03:43:51.258Z,2.90
2019-03-16T03:44:51.244Z,3.00
2019-03-16T03:45:51.234Z,2.80
2019-03-16T03:46:51.238Z,2.80
2019-03-16T03:47:51.208Z,3.00
2019-03-16T03:48:51.192Z,3.10
2019-03-16T03:49:51.187Z,2.70
2019-03-16T03:50:51.182Z,2.90
2019-03-16T03:51:51.165Z,3.30
2019-03-16T03:52:51.185Z,2.90
2019-03-16T03:53:51.147Z,2.80
2019-03-16T03:54:51.130Z,2.90
2019-03-16T03:55:57.218Z,2.80
2019-03-16T03:56:51.106Z,2.90
2019-03-16T03:57:51.090Z,3.20
2019-03-16T03:58:51.089Z,3.00
2019-03-16T03:59:51.073Z,2.90
2019-03-16T04:00:51.057Z,2.80
2019-03-16T04:01:51.046Z,3.20
2019-03-16T04:02:51.042Z,3.10
2019-03-16T04:03:51.058Z,3.00
2019-03-16T04:04:51.013Z,3.20
2019-03-16T04:05:51.000Z,3.00
2019-03-16T04:06:50.992Z,3.30
2019-03-16T04:07:50.985Z,3.20
2019-03-16T04:08:50.968Z,2.70
2019-03-16T04:09:50.996Z,3.00
2019-03-16T04:10:50.945Z,2.90
2019-03-16T04:11:50.940Z,2.90
2019-03-16T04:12:50.925Z,3.40
2019-03-16T04:13:50.912Z,2.90
2019-03-16T04:14:50.946Z,2.90
2019-03-16T04:15:50.940Z,3.00
2019-03-16T04:16:50.901Z,2.90
2019-03-16T04:17:50.876Z,3.00
2019-03-16T04:18:52.006Z,3.10
2019-03-16T04:19:50.851Z,3.00
2019-03-16T04:20:50.837Z,3.20
2019-03-16T04:21:50.837Z,2.70
2019-03-16T04:22:50.810Z,3.10
2019-03-16T04:23:50.807Z,3.00
2019-03-16T04:24:50.792Z,3.00
2019-03-16T04:25:50.783Z,3.10
2019-03-16T04:26:50.772Z,3.20
2019-03-16T04:27:56.849Z,3.10
2019-03-16T04:28:50.746Z,2.90
2019-03-16T04:29:50.731Z,3.00
2019-03-16T04:30:50.736Z,3.20
2019-03-16T04:31:50.748Z,2.70
2019-03-16T04:32:50.696Z,3.10
2019-03-16T04:33:50.693Z,3.10
2019-03-16T04:34:50.673Z,3.10
2019-03-16T04:35:50.663Z,3.10
2019-03-16T04:36:50.657Z,3.10
2019-03-16T04:37:50.685Z,3.20
2019-03-16T04:38:50.633Z,3.00
2019-03-16T04:39:50.617Z,3.30
2019-03-16T04:40:50.612Z,3.40
2019-03-16T04:41:50.595Z,3.20
2019-03-16T04:42:50.588Z,3.30
2019-03-16T04:43:50.611Z,3.20
2019-03-16T04:44:50.561Z,3.10
2019-03-16T04:45:50.549Z,3.30
2019-03-16T04:46:50.542Z,2.90
2019-03-16T04:47:50.530Z,3.10
2019-03-16T04:48:50.520Z,2.90
2019-03-16T04:49:50.515Z,3.00
2019-03-16T04:50:50.499Z,3.10
2019-03-16T04:51:50.483Z,3.10
2019-03-16T04:52:51.249Z,3.20
2019-03-16T04:53:50.464Z,3.30
2019-03-16T04:54:50.485Z,2.90
2019-03-16T04:55:50.437Z,2.90
2019-03-16T04:56:50.429Z,3.20
2019-03-16T04:57:50.418Z,3.20
2019-03-16T04:58:51.752Z,3.00
2019-03-16T04:59:56.882Z,3.10
2019-03-16T05:00:50.414Z,3.00
2019-03-16T05:01:50.373Z,3.10
2019-03-16T05:02:50.357Z,3.10
2019-03-16T05:03:50.360Z,2.90
2019-03-16T05:04:50.338Z,2.80
2019-03-16T05:05:50.354Z,2.70
2019-03-16T05:06:50.352Z,3.40
2019-03-16T05:07:50.306Z,2.80
2019-03-16T05:08:50.289Z,3.20
2019-03-16T05:09:50.275Z,3.10
2019-03-16T05:10:50.268Z,3.10
2019-03-16T05:11:50.253Z,2.90
2019-03-16T05:12:50.255Z,2.90
2019-03-16T05:13:50.235Z,2.80
2019-03-16T05:14:50.224Z,3.30
2019-03-16T05:15:50.989Z,3.40
2019-03-16T05:16:50.221Z,2.90
2019-03-16T05:17:50.190Z,3.50
2019-03-16T05:18:50.179Z,2.80
2019-03-16T05:19:50.165Z,3.20
2019-03-16T05:20:50.157Z,3.60
2019-03-16T05:21:50.140Z,3.10
2019-03-16T05:22:50.144Z,2.80
2019-03-16T05:23:50.121Z,2.80
2019-03-16T05:24:50.109Z,3.40
2019-03-16T05:25:50.101Z,3.00
2019-03-16T05:26:50.091Z,3.50
2019-03-16T05:27:50.109Z,2.90
2019-03-16T05:28:50.065Z,3.60
2019-03-16T05:29:50.055Z,3.00
2019-03-16T05:30:50.045Z,3.50
2019-03-16T05:31:56.129Z,3.20
2019-03-16T05:32:50.021Z,2.80
2019-03-16T05:33:50.019Z,3.10
2019-03-16T05:34:56.392Z,3.10
2019-03-16T05:35:51.003Z,2.90
2019-03-16T05:36:49.973Z,2.90
2019-03-16T05:37:49.960Z,3.20
2019-03-16T05:38:49.953Z,2.90
2019-03-16T05:39:49.939Z,3.30
2019-03-16T05:40:49.932Z,3.10
2019-03-16T05:41:49.936Z,3.20
2019-03-16T05:42:49.903Z,3.00
2019-03-16T05:43:49.900Z,3.60
2019-03-16T05:44:49.879Z,3.10
2019-03-16T05:45:49.868Z,3.00
2019-03-16T05:46:49.861Z,2.90
2019-03-16T05:47:49.911Z,3.20
2019-03-16T05:48:49.838Z,3.20
2019-03-16T05:49:49.825Z,3.10
2019-03-16T05:50:49.816Z,2.90
2019-03-16T05:51:49.799Z,2.90
2019-03-16T05:52:49.796Z,3.10
2019-03-16T05:53:49.818Z,3.00
2019-03-16T05:54:49.766Z,3.00
2019-03-16T05:55:49.760Z,3.20
2019-03-16T05:56:49.745Z,3.20
2019-03-16T05:57:49.738Z,3.20
2019-03-16T05:58:49.733Z,3.50
2019-03-16T05:59:49.756Z,3.30
2019-03-16T06:00:49.707Z,2.90
2019-03-16T06:01:49.688Z,2.90
2019-03-16T06:02:49.681Z,3.10
2019-03-16T06:03:55.765Z,3.00
2019-03-16T06:04:49.661Z,3.40
2019-03-16T06:05:49.659Z,3.10
2019-03-16T06:06:49.640Z,3.20
2019-03-16T06:07:49.618Z,3.00
2019-03-16T06:08:49.630Z,3.50
2019-03-16T06:09:49.604Z,3.40
2019-03-16T06:10:49.585Z,3.00
2019-03-16T06:11:49.580Z,2.90
2019-03-16T06:12:49.567Z,2.90
2019-03-16T06:13:49.552Z,3.10
2019-03-16T06:14:49.596Z,3.20
2019-03-16T06:15:49.527Z,3.00
2019-03-16T06:16:49.518Z,3.30
2019-03-16T06:17:49.508Z,2.90
2019-03-16T06:18:49.496Z,3.50
2019-03-16T06:19:49.485Z,3.10
2019-03-16T06:20:49.491Z,3.10
2019-03-16T06:21:49.465Z,3.00
2019-03-16T06:22:49.450Z,3.10
2019-03-16T06:23:49.436Z,3.30
2019-03-16T06:24:49.428Z,3.20
2019-03-16T06:25:49.438Z,3.30
2019-03-16T06:26:49.424Z,3.30
2019-03-16T06:27:49.390Z,3.10
2019-03-16T06:28:49.385Z,3.10
2019-03-16T06:29:49.368Z,3.30
2019-03-16T06:30:49.358Z,3.30
2019-03-16T06:31:49.348Z,2.90
2019-03-16T06:32:49.342Z,2.90
2019-03-16T06:33:49.324Z,3.30
2019-03-16T06:34:49.321Z,3.20
2019-03-16T06:35:55.407Z,2.80
2019-03-16T06:36:49.301Z,2.70
2019-03-16T06:37:49.348Z,3.40
2019-03-16T06:38:49.268Z,3.00
2019-03-16T06:39:49.268Z,3.10
2019-03-16T06:40:49.245Z,3.10
2019-03-16T06:41:49.236Z,2.60
2019-03-16T06:42:49.223Z,3.20
2019-03-16T06:43:49.250Z,3.10
2019-03-16T06:44:49.215Z,3.40
2019-03-16T06:45:49.185Z,3.00
2019-03-16T06:46:49.183Z,3.10
2019-03-16T06:47:49.167Z,3.20
2019-03-16T06:48:49.150Z,2.90
2019-03-16T06:49:49.190Z,3.30
2019-03-16T06:50:49.136Z,3.10
2019-03-16T06:51:49.122Z,2.90
2019-03-16T06:52:49.116Z,3.20
2019-03-16T06:53:49.097Z,3.30
2019-03-16T06:54:49.095Z,3.10
2019-03-16T06:55:49.115Z,3.10
2019-03-16T06:56:49.062Z,3.20
2019-03-16T06:57:49.050Z,2.90
2019-03-16T06:58:49.050Z,3.10
2019-03-16T06:59:49.028Z,2.90
2019-03-16T07:00:49.023Z,2.90
2019-03-16T07:01:49.042Z,3.00
2019-03-16T07:02:49.000Z,3.20
2019-03-16T07:03:48.986Z,3.10
2019-03-16T07:04:48.971Z,3.00
2019-03-16T07:05:48.965Z,3.60
2019-03-16T07:06:48.948Z,3.00
2019-03-16T07:07:55.450Z,3.10
2019-03-16T07:08:48.927Z,2.90
2019-03-16T07:09:48.912Z,3.10
2019-03-16T07:10:48.902Z,3.00
2019-03-16T07:11:48.890Z,3.40
2019-03-16T07:12:48.887Z,3.30
2019-03-16T07:13:48.869Z,3.00
2019-03-16T07:14:48.872Z,3.10
2019-03-16T07:15:48.850Z,3.10
2019-03-16T07:17:01.058Z,3.10
2019-03-16T07:17:49.825Z,3.20
2019-03-16T07:18:58.393Z,2.90
2019-03-16T07:19:49.796Z,3.00
2019-03-16T07:20:48.795Z,3.00
2019-03-16T07:21:48.783Z,2.70
2019-03-16T07:22:48.773Z,3.00
2019-03-16T07:23:48.799Z,2.90
2019-03-16T07:24:51.614Z,3.20
2019-03-16T07:25:48.752Z,3.10
2019-03-16T07:26:48.719Z,3.10
2019-03-16T07:27:48.709Z,2.80
2019-03-16T07:28:48.703Z,3.00
2019-03-16T07:29:48.694Z,3.10
2019-03-16T07:30:48.674Z,3.00
2019-03-16T07:31:48.673Z,3.10
2019-03-16T07:32:48.658Z,3.10
2019-03-16T07:33:48.646Z,3.00
2019-03-16T07:34:48.664Z,2.90
2019-03-16T07:35:48.619Z,2.90
2019-03-16T07:36:48.610Z,2.80
2019-03-16T07:37:48.599Z,3.10
2019-03-16T07:38:48.582Z,3.10
2019-03-16T07:39:54.988Z,3.30
2019-03-16T07:40:48.562Z,3.10
2019-03-16T07:41:48.551Z,3.40
2019-03-16T07:42:48.539Z,3.10
2019-03-16T07:43:48.529Z,3.10
2019-03-16T07:44:48.517Z,3.10
2019-03-16T07:45:48.523Z,3.20
2019-03-16T07:46:48.492Z,3.10
2019-03-16T07:47:48.480Z,3.00
2019-03-16T07:48:48.474Z,2.90
2019-03-16T07:49:48.462Z,2.70
2019-03-16T07:50:48.451Z,2.80
2019-03-16T07:51:48.442Z,3.20
2019-03-16T07:52:48.469Z,3.00
2019-03-16T07:53:48.420Z,3.10
2019-03-16T07:54:48.417Z,3.30
2019-03-16T07:55:48.388Z,3.30
2019-03-16T07:56:48.383Z,3.10
2019-03-16T07:57:48.370Z,2.90
2019-03-16T07:58:48.399Z,3.00
2019-03-16T07:59:48.960Z,3.40
2019-03-16T08:00:48.332Z,3.00
2019-03-16T08:01:48.324Z,2.90
2019-03-16T08:02:48.315Z,3.00
2019-03-16T08:03:48.297Z,2.80
2019-03-16T08:04:48.299Z,2.90
2019-03-16T08:05:48.277Z,2.90
2019-03-16T08:06:48.265Z,2.90
2019-03-16T08:07:48.258Z,3.10
2019-03-16T08:08:48.241Z,2.60
2019-03-16T08:09:48.273Z,3.00
2019-03-16T08:10:48.223Z,2.80
2019-03-16T08:11:54.293Z,2.90
2019-03-16T08:12:48.202Z,2.80
2019-03-16T08:13:48.188Z,2.90
2019-03-16T08:14:48.172Z,3.30
2019-03-16T08:15:48.204Z,3.00
2019-03-16T08:16:48.154Z,2.70
2019-03-16T08:17:48.140Z,2.90
2019-03-16T08:18:48.132Z,3.00
2019-03-16T08:19:48.121Z,2.60
2019-03-16T08:20:48.109Z,2.90
2019-03-16T08:21:48.118Z,3.20
2019-03-16T08:22:48.091Z,2.90
2019-03-16T08:23:48.083Z,2.90
2019-03-16T08:24:48.068Z,2.90
2019-03-16T08:25:48.052Z,3.00
2019-03-16T08:26:48.034Z,2.50
2019-03-16T08:27:53.962Z,3.00
2019-03-16T08:28:49.018Z,2.50
2019-03-16T08:29:48.001Z,2.50
2019-03-16T08:30:48.000Z,3.00
2019-03-16T08:31:47.990Z,2.90
2019-03-16T08:32:47.969Z,2.60
2019-03-16T08:33:47.960Z,2.60
2019-03-16T08:34:47.952Z,2.80
2019-03-16T08:35:47.936Z,2.60
2019-03-16T08:36:47.964Z,2.70
2019-03-16T08:37:47.917Z,2.70
2019-03-16T08:38:47.901Z,2.60
2019-03-16T08:39:47.891Z,2.70
2019-03-16T08:40:47.883Z,2.40
2019-03-16T08:41:47.869Z,2.40
2019-03-16T08:42:47.874Z,2.50
2019-03-16T08:43:53.934Z,2.50
2019-03-16T08:44:47.832Z,2.90
2019-03-16T08:45:47.827Z,2.70
2019-03-16T08:46:47.812Z,2.70
2019-03-16T08:47:47.806Z,2.40
2019-03-16T08:48:47.802Z,2.50
2019-03-16T08:49:47.782Z,2.60
2019-03-16T08:50:47.768Z,2.30
2019-03-16T08:51:47.756Z,2.50
2019-03-16T08:52:47.744Z,2.70
2019-03-16T08:53:47.766Z,2.40
2019-03-16T08:54:47.724Z,2.50
2019-03-16T08:55:47.705Z,2.50
2019-03-16T08:56:47.694Z,2.60
2019-03-16T08:57:47.687Z,2.50
2019-03-16T08:58:47.672Z,2.70
2019-03-16T08:59:47.682Z,2.30
2019-03-16T09:00:47.655Z,2.80
2019-03-16T09:01:47.638Z,2.50
2019-03-16T09:02:47.628Z,2.50
2019-03-16T09:03:47.624Z,2.60
2019-03-16T09:04:47.680Z,2.10
2019-03-16T09:05:47.613Z,2.70
2019-03-16T09:06:47.589Z,2.30
2019-03-16T09:07:47.572Z,2.30
2019-03-16T09:08:47.560Z,2.80
2019-03-16T09:09:47.554Z,2.40
2019-03-16T09:10:47.539Z,2.60
2019-03-16T09:11:47.532Z,2.40
2019-03-16T09:12:55.005Z,2.30
2019-03-16T09:13:48.505Z,2.50
2019-03-16T09:14:47.501Z,2.60
2019-03-16T09:15:53.572Z,2.70
2019-03-16T09:16:47.516Z,2.40
2019-03-16T09:17:47.458Z,3.00
2019-03-16T09:18:47.444Z,2.50
2019-03-16T09:19:47.441Z,2.70
2019-03-16T09:20:47.422Z,2.50
2019-03-16T09:21:47.423Z,2.60
2019-03-16T09:22:47.414Z,2.40
2019-03-16T09:23:47.392Z,2.60
2019-03-16T09:24:47.379Z,2.50
2019-03-16T09:25:47.366Z,2.20
2019-03-16T09:26:47.354Z,2.10
2019-03-16T09:27:47.366Z,2.60
2019-03-16T09:28:59.355Z,2.50
2019-03-16T09:29:48.317Z,2.40
2019-03-16T09:30:47.311Z,2.70
2019-03-16T09:31:47.299Z,2.50
2019-03-16T09:32:47.294Z,2.40
2019-03-16T09:33:47.297Z,2.20
2019-03-16T09:34:47.287Z,2.50
2019-03-16T09:35:47.253Z,2.50
2019-03-16T09:36:47.242Z,2.40
2019-03-16T09:37:47.229Z,2.20
2019-03-16T09:38:47.218Z,2.20
2019-03-16T09:39:47.251Z,2.50
2019-03-16T09:40:47.197Z,2.10
2019-03-16T09:41:47.191Z,2.40
2019-03-16T09:42:47.171Z,2.40
2019-03-16T09:43:47.162Z,2.50
2019-03-16T09:44:47.158Z,2.70
2019-03-16T09:45:47.180Z,2.30
2019-03-16T09:46:47.130Z,2.20
2019-03-16T09:47:53.521Z,2.50
2019-03-16T09:48:47.107Z,2.40
2019-03-16T09:49:47.093Z,2.20
2019-03-16T09:50:47.088Z,2.20
2019-03-16T09:51:47.083Z,2.40
2019-03-16T09:52:47.064Z,2.20
2019-03-16T09:53:47.054Z,2.30
2019-03-16T09:54:47.040Z,2.40
2019-03-16T09:55:47.033Z,2.30
2019-03-16T09:57:00.019Z,2.60
2019-03-16T09:57:48.005Z,2.20
2019-03-16T09:58:46.994Z,2.40
2019-03-16T09:59:46.985Z,2.30
2019-03-16T10:00:46.973Z,2.30
2019-03-16T10:01:46.963Z,2.20
2019-03-16T10:02:46.984Z,2.40
2019-03-16T10:03:46.937Z,2.70
2019-03-16T10:04:46.939Z,2.30
2019-03-16T10:05:46.916Z,2.30
2019-03-16T10:06:46.906Z,2.30
2019-03-16T10:07:46.890Z,2.20
2019-03-16T10:08:46.889Z,2.30
2019-03-16T10:09:46.873Z,2.40
2019-03-16T10:10:46.861Z,2.30
2019-03-16T10:11:46.847Z,2.40
2019-03-16T10:12:46.836Z,2.70
2019-03-16T10:13:46.864Z,2.50
2019-03-16T10:14:46.818Z,2.50
2019-03-16T10:15:46.801Z,2.30
2019-03-16T10:16:46.789Z,2.40
2019-03-16T10:17:46.781Z,2.50
2019-03-16T10:18:46.769Z,2.30
2019-03-16T10:19:53.055Z,2.30
2019-03-16T10:20:46.741Z,2.40
2019-03-16T10:21:46.734Z,2.30
2019-03-16T10:22:46.721Z,2.40
2019-03-16T10:23:46.707Z,2.40
2019-03-16T10:24:46.734Z,2.70
2019-03-16T10:25:46.685Z,2.30
2019-03-16T10:26:46.678Z,2.20
2019-03-16T10:27:46.663Z,2.10
2019-03-16T10:28:46.652Z,2.30
2019-03-16T10:29:46.648Z,2.30
2019-03-16T10:30:46.673Z,2.40
2019-03-16T10:31:46.616Z,2.40
2019-03-16T10:32:46.613Z,2.40
2019-03-16T10:33:46.602Z,2.30
2019-03-16T10:34:46.584Z,2.10
2019-03-16T10:35:46.570Z,2.60
2019-03-16T10:36:46.576Z,2.30
2019-03-16T10:37:46.553Z,2.70
2019-03-16T10:38:46.539Z,2.50
2019-03-16T10:39:46.529Z,2.40
2019-03-16T10:40:46.519Z,2.40
2019-03-16T10:41:46.513Z,2.40
2019-03-16T10:42:46.510Z,2.10
2019-03-16T10:43:46.484Z,2.30
2019-03-16T10:44:46.471Z,2.40
2019-03-16T10:45:46.459Z,2.40
2019-03-16T10:46:46.495Z,2.70
2019-03-16T10:47:46.437Z,2.50
2019-03-16T10:48:46.427Z,2.30
2019-03-16T10:49:46.414Z,2.50
2019-03-16T10:50:46.400Z,2.50
2019-03-16T10:51:52.570Z,2.50
2019-03-16T10:52:46.386Z,2.70
2019-03-16T10:53:46.422Z,2.50
2019-03-16T10:54:46.357Z,2.40
2019-03-16T10:55:46.343Z,2.80
2019-03-16T10:56:46.336Z,2.40
2019-03-16T10:57:46.320Z,2.10
2019-03-16T10:58:55.954Z,2.30
2019-03-16T10:59:47.319Z,2.30
2019-03-16T11:00:46.293Z,2.30
2019-03-16T11:01:46.274Z,2.50
2019-03-16T11:02:46.266Z,2.80
2019-03-16T11:03:46.259Z,2.50
2019-03-16T11:04:46.242Z,2.20
2019-03-16T11:05:46.244Z,2.50
2019-03-16T11:06:46.221Z,2.40
2019-03-16T11:07:46.210Z,2.50
2019-03-16T11:08:46.206Z,2.50
2019-03-16T11:09:46.185Z,2.70
2019-03-16T11:10:46.189Z,2.50
2019-03-16T11:11:46.175Z,2.20
2019-03-16T11:12:46.155Z,2.40
2019-03-16T11:13:46.142Z,2.50
2019-03-16T11:14:46.129Z,2.40
2019-03-16T11:15:46.118Z,2.40
2019-03-16T11:16:46.149Z,2.60
2019-03-16T11:17:46.095Z,2.40
2019-03-16T11:18:46.091Z,2.30
2019-03-16T11:19:46.071Z,2.50
2019-03-16T11:20:46.067Z,2.50
2019-03-16T11:21:46.053Z,2.50
2019-03-16T11:22:46.049Z,2.60
2019-03-16T11:23:52.116Z,2.30
2019-03-16T11:24:46.023Z,2.30
2019-03-16T11:25:46.003Z,2.60
2019-03-16T11:26:45.999Z,2.50
2019-03-16T11:27:46.084Z,2.50
2019-03-16T11:28:45.976Z,2.60
2019-03-16T11:29:45.958Z,2.40
2019-03-16T11:30:45.947Z,2.50
2019-03-16T11:31:45.935Z,2.40
2019-03-16T11:32:45.929Z,2.50
2019-03-16T11:33:48.316Z,2.30
2019-03-16T11:34:45.899Z,2.30
2019-03-16T11:35:45.894Z,2.50
2019-03-16T11:36:45.881Z,2.80
2019-03-16T11:37:45.876Z,2.30
2019-03-16T11:38:45.858Z,2.50
2019-03-16T11:39:45.865Z,2.50
2019-03-16T11:40:45.833Z,2.80
2019-03-16T11:41:45.827Z,2.40
2019-03-16T11:42:45.815Z,2.50
2019-03-16T11:43:45.798Z,2.30
2019-03-16T11:44:45.791Z,2.40
2019-03-16T11:45:45.792Z,2.50
2019-03-16T11:46:45.767Z,2.60
2019-03-16T11:47:45.759Z,2.70
2019-03-16T11:48:45.741Z,2.50
2019-03-16T11:49:45.737Z,2.40
2019-03-16T11:50:45.725Z,2.30
2019-03-16T11:51:45.724Z,2.60
2019-03-16T11:52:45.695Z,2.30
2019-03-16T11:53:45.698Z,2.40
2019-03-16T11:54:45.680Z,2.60
2019-03-16T11:55:54.334Z,2.30
2019-03-16T11:56:45.662Z,2.50
2019-03-16T11:57:45.732Z,2.50
2019-03-16T11:58:45.629Z,2.50
2019-03-16T11:59:45.618Z,2.50
2019-03-16T12:00:45.612Z,2.30
2019-03-16T12:01:45.674Z,2.60
2019-03-16T12:02:45.589Z,2.40
2019-03-16T12:03:45.569Z,2.40
2019-03-16T12:04:45.563Z,2.30
2019-03-16T12:05:45.554Z,2.50
2019-03-16T12:06:45.590Z,2.50
2019-03-16T12:07:45.542Z,2.40
2019-03-16T12:08:45.517Z,2.40
2019-03-16T12:09:45.504Z,2.70
2019-03-16T12:10:45.490Z,2.30
2019-03-16T12:11:45.484Z,2.70
2019-03-16T12:12:45.481Z,2.80
2019-03-16T12:13:45.468Z,2.80
2019-03-16T12:14:45.453Z,2.50
2019-03-16T12:15:45.442Z,2.60
2019-03-16T12:16:45.422Z,2.50
2019-03-16T12:17:45.454Z,2.20
2019-03-16T12:18:45.403Z,2.50
2019-03-16T12:19:45.392Z,2.50
2019-03-16T12:20:45.383Z,2.30
2019-03-16T12:21:45.371Z,2.50
2019-03-16T12:22:45.355Z,2.60
2019-03-16T12:23:45.361Z,2.40
2019-03-16T12:24:45.335Z,2.30
2019-03-16T12:25:45.319Z,2.50
2019-03-16T12:26:45.313Z,2.30
2019-03-16T12:27:51.391Z,2.20
2019-03-16T12:28:45.289Z,2.20
2019-03-16T12:29:45.313Z,2.40
2019-03-16T12:30:45.264Z,2.20
2019-03-16T12:31:45.251Z,2.60
2019-03-16T12:32:45.248Z,2.10
2019-03-16T12:33:45.230Z,2.60
2019-03-16T12:34:45.217Z,2.30
2019-03-16T12:35:45.247Z,2.30
2019-03-16T12:36:45.201Z,2.50
2019-03-16T12:37:45.187Z,2.40
2019-03-16T12:38:45.180Z,2.40
2019-03-16T12:39:45.172Z,2.60
2019-03-16T12:40:45.151Z,2.40
2019-03-16T12:41:45.183Z,2.40
2019-03-16T12:42:45.137Z,2.40
2019-03-16T12:43:45.122Z,2.20
2019-03-16T12:44:45.107Z,2.50
2019-03-16T12:45:45.105Z,2.20
2019-03-16T12:46:45.081Z,2.30
2019-03-16T12:47:45.113Z,2.10
2019-03-16T12:48:45.058Z,2.40
2019-03-16T12:49:45.050Z,2.10
2019-03-16T12:50:45.041Z,2.70
2019-03-16T12:51:45.028Z,2.20
2019-03-16T12:52:45.017Z,2.10
2019-03-16T12:53:45.017Z,2.20
2019-03-16T12:54:45.042Z,2.20
2019-03-16T12:55:44.981Z,2.40
2019-03-16T12:56:44.966Z,2.30
2019-03-16T12:57:47.815Z,2.40
2019-03-16T12:58:44.949Z,2.00
2019-03-16T12:59:51.152Z,2.20
2019-03-16T13:00:44.922Z,2.60
2019-03-16T13:01:44.921Z,2.20
2019-03-16T13:02:44.898Z,2.20
2019-03-16T13:03:44.887Z,2.40
2019-03-16T13:04:44.877Z,2.50
2019-03-16T13:05:44.871Z,2.40
2019-03-16T13:06:44.867Z,2.20
2019-03-16T13:07:44.846Z,2.00
2019-03-16T13:08:44.831Z,2.20
2019-03-16T13:09:44.825Z,2.30
2019-03-16T13:10:44.845Z,2.30
2019-03-16T13:11:44.797Z,2.50
2019-03-16T13:12:44.794Z,2.20
2019-03-16T13:13:44.774Z,2.40
2019-03-16T13:14:44.766Z,2.30
2019-03-16T13:15:44.756Z,2.20
2019-03-16T13:16:44.779Z,2.20
2019-03-16T13:17:44.727Z,2.30
2019-03-16T13:18:44.721Z,2.20